createdAt,value
2023-05-03T00:01:26.695Z,3.77
2023-05-03T00:03:56.510Z,3.33
2023-05-03T00:06:26.230Z,3.40
2023-05-03T00:08:55.064Z,3.50
2023-05-03T00:11:23.918Z,3.23
2023-05-03T00:13:53.113Z,3.93
2023-05-03T00:16:21.982Z,4.00
2023-05-03T00:18:57.106Z,3.27
2023-05-03T00:21:26.470Z,3.67
2023-05-03T00:23:55.871Z,3.97
2023-05-03T00:26:26.097Z,4.07
2023-05-03T00:28:54.936Z,3.27
2023-05-03T00:31:24.090Z,3.93
2023-05-03T00:33:54.974Z,4.03
2023-05-03T00:36:23.692Z,3.93
2023-05-03T00:38:52.886Z,3.80
2023-05-03T00:41:23.886Z,3.90
2023-05-03T00:43:53.124Z,3.70
2023-05-03T00:46:22.223Z,3.40
2023-05-03T00:48:56.528Z,3.90
2023-05-03T00:51:28.223Z,3.30
2023-05-03T00:53:57.568Z,3.90
2023-05-03T00:56:32.973Z,3.47
2023-05-03T00:59:08.209Z,3.90
2023-05-03T01:01:37.083Z,3.90
2023-05-03T01:04:07.626Z,3.20
2023-05-03T01:06:44.535Z,4.25
2023-05-03T01:09:18.464Z,3.37
2023-05-03T01:11:53.724Z,4.10
2023-05-03T01:14:32.790Z,4.00
2023-05-03T01:17:08.905Z,4.10
2023-05-03T01:19:44.277Z,3.33
2023-05-03T01:22:22.311Z,3.87
2023-05-03T01:25:00.094Z,3.47
2023-05-03T01:27:30.487Z,3.40
2023-05-03T01:29:59.431Z,3.97
2023-05-03T01:32:36.594Z,3.87
2023-05-03T01:35:15.908Z,3.57
2023-05-03T01:37:45.317Z,3.50
2023-05-03T01:40:16.336Z,3.80
2023-05-03T01:42:46.152Z,3.47
2023-05-03T01:45:17.760Z,3.53
2023-05-03T01:47:46.722Z,3.30
2023-05-03T01:50:16.809Z,3.37
2023-05-03T01:52:46.048Z,3.50
2023-05-03T01:55:18.340Z,3.10
2023-05-03T01:57:47.540Z,3.40
2023-05-03T02:00:16.774Z,3.60
2023-05-03T02:02:46.271Z,3.23
2023-05-03T02:05:15.437Z,2.90
2023-05-03T02:07:44.698Z,2.95
2023-05-03T02:10:14.610Z,2.93
2023-05-03T02:12:44.572Z,3.00
2023-05-03T02:15:13.946Z,3.30
2023-05-03T02:17:45.103Z,3.00
2023-05-03T02:20:14.092Z,2.83
2023-05-03T02:22:43.217Z,2.57
2023-05-03T02:25:12.166Z,2.97
2023-05-03T02:27:41.338Z,2.90
2023-05-03T02:30:11.772Z,2.80
2023-05-03T02:32:42.665Z,3.40
2023-05-03T02:35:12.507Z,2.83
2023-05-03T02:37:41.299Z,2.63
2023-05-03T02:40:12.834Z,3.30
2023-05-03T02:42:42.765Z,3.80
2023-05-03T02:45:12.610Z,3.17
2023-05-03T02:47:43.762Z,3.00
2023-05-03T02:50:13.553Z,3.73
2023-05-03T02:52:42.805Z,3.40
2023-05-03T02:55:12.208Z,3.47
2023-05-03T02:57:42.402Z,3.50
2023-05-03T03:00:15.251Z,3.07
2023-05-03T03:02:44.676Z,3.00
2023-05-03T03:05:14.224Z,3.00
2023-05-03T03:07:44.193Z,3.73
2023-05-03T03:10:12.913Z,2.77
2023-05-03T03:12:42.176Z,3.43
2023-05-03T03:15:13.210Z,3.43
2023-05-03T03:17:42.406Z,3.10
2023-05-03T03:20:12.417Z,3.23
2023-05-03T03:22:45.003Z,3.33
2023-05-03T03:25:15.485Z,2.97
2023-05-03T03:27:44.966Z,2.60
2023-05-03T03:30:15.347Z,3.10
2023-05-03T03:32:51.452Z,3.93
2023-05-03T03:35:22.652Z,3.00
2023-05-03T03:37:51.514Z,2.93
2023-05-03T03:40:22.363Z,2.37
2023-05-03T03:42:51.874Z,3.03
2023-05-03T03:45:20.967Z,3.30
2023-05-03T03:47:51.576Z,3.57
2023-05-03T03:50:24.443Z,3.10
2023-05-03T03:52:53.676Z,3.00
2023-05-03T03:55:23.814Z,3.23
2023-05-03T03:57:54.296Z,4.13
2023-05-03T04:00:25.399Z,3.60
2023-05-03T04:02:58.521Z,3.73
2023-05-03T04:05:28.372Z,3.00
2023-05-03T04:07:57.268Z,2.90
2023-05-03T04:10:27.631Z,3.37
2023-05-03T04:12:56.823Z,3.47
2023-05-03T04:15:26.494Z,3.23
2023-05-03T04:17:58.118Z,3.77
2023-05-03T04:20:28.502Z,3.15
2023-05-03T04:22:57.531Z,2.70
2023-05-03T04:25:31.640Z,3.20
2023-05-03T04:28:06.355Z,2.90
2023-05-03T04:30:36.103Z,2.93
2023-05-03T04:33:05.187Z,3.83
2023-05-03T04:35:35.990Z,2.90
2023-05-03T04:40:38.544Z,3.10
2023-05-03T04:43:11.117Z,3.23
2023-05-03T04:45:42.722Z,2.97
2023-05-03T04:48:17.547Z,2.90
2023-05-03T04:50:46.607Z,2.53
2023-05-03T04:53:18.461Z,2.60
2023-05-03T04:55:54.262Z,2.97
2023-05-03T04:58:23.647Z,2.80
2023-05-03T05:00:54.002Z,2.77
2023-05-03T05:03:30.955Z,2.53
2023-05-03T05:06:01.212Z,2.77
2023-05-03T05:08:30.863Z,2.87
2023-05-03T05:11:03.402Z,2.57
2023-05-03T05:13:32.997Z,2.67
2023-05-03T05:16:02.118Z,2.40
2023-05-03T05:18:34.429Z,2.70
2023-05-03T05:21:05.676Z,2.63
2023-05-03T05:23:35.890Z,2.10
2023-05-03T05:26:05.129Z,2.13
2023-05-03T05:28:34.859Z,2.13
2023-05-03T05:31:03.943Z,2.33
2023-05-03T05:33:33.364Z,1.80
2023-05-03T05:36:03.072Z,2.50
2023-05-03T05:38:33.321Z,2.27
2023-05-03T05:41:04.584Z,2.17
2023-05-03T05:43:34.901Z,1.93
2023-05-03T05:46:04.537Z,2.17
2023-05-03T05:48:34.662Z,2.00
2023-05-03T05:51:05.839Z,2.10
2023-05-03T05:53:35.086Z,2.23
2023-05-03T05:56:05.864Z,1.90
2023-05-03T05:58:36.989Z,1.77
2023-05-03T06:01:10.413Z,1.93
2023-05-03T06:06:09.816Z,2.23
2023-05-03T06:08:39.170Z,2.23
2023-05-03T06:11:08.290Z,2.10
2023-05-03T06:13:40.444Z,2.10
2023-05-03T06:16:12.246Z,1.90
2023-05-03T06:18:44.780Z,1.50
2023-05-03T06:21:13.768Z,1.70
2023-05-03T06:23:45.226Z,1.57
2023-05-03T06:26:17.143Z,1.70
2023-05-03T06:28:47.422Z,1.60
2023-05-03T06:31:16.945Z,1.40
2023-05-03T06:33:47.279Z,1.70
2023-05-03T06:36:16.593Z,1.33
2023-05-03T06:38:45.535Z,1.73
2023-05-03T06:41:14.326Z,1.40
2023-05-03T06:43:43.628Z,1.83
2023-05-03T06:46:14.441Z,2.10
2023-05-03T06:48:43.789Z,1.60
2023-05-03T06:51:13.009Z,1.70
2023-05-03T06:53:41.899Z,1.37
2023-05-03T06:56:12.043Z,1.90
2023-05-03T06:58:40.898Z,1.87
2023-05-03T07:01:09.757Z,1.60
2023-05-03T07:03:41.626Z,1.40
2023-05-03T07:06:13.613Z,1.30
2023-05-03T07:08:42.990Z,1.57
2023-05-03T07:11:13.108Z,1.73
2023-05-03T07:13:42.452Z,1.77
2023-05-03T07:16:11.361Z,1.80
2023-05-03T07:18:40.458Z,2.07
2023-05-03T07:21:09.580Z,2.23
2023-05-03T07:23:38.860Z,2.03
2023-05-03T07:26:08.346Z,2.30
2023-05-03T07:28:37.284Z,1.70
2023-05-03T07:31:06.515Z,2.30
2023-05-03T07:33:36.908Z,2.70
2023-05-03T07:36:06.722Z,2.23
2023-05-03T07:38:35.630Z,2.20
2023-05-03T07:41:04.552Z,2.60
2023-05-03T07:43:33.540Z,2.57
2023-05-03T07:46:02.870Z,3.20
2023-05-03T07:48:32.147Z,2.60
2023-05-03T07:51:03.650Z,1.90
2023-05-03T07:53:35.144Z,2.63
2023-05-03T07:56:04.571Z,2.00
2023-05-03T07:58:40.016Z,2.07
2023-05-03T08:01:10.919Z,2.57
2023-05-03T08:03:40.678Z,2.53
2023-05-03T08:06:10.232Z,2.47
2023-05-03T08:08:39.420Z,1.90
2023-05-03T08:11:08.379Z,2.00
2023-05-03T08:13:37.232Z,2.30
2023-05-03T08:16:07.099Z,2.07
2023-05-03T08:18:36.122Z,2.33
2023-05-03T08:21:08.410Z,2.10
2023-05-03T08:23:37.324Z,1.70
2023-05-03T08:26:08.878Z,2.17
2023-05-03T08:28:37.961Z,2.57
2023-05-03T08:31:09.843Z,2.03
2023-05-03T08:33:42.301Z,1.90
2023-05-03T08:36:11.487Z,1.83
2023-05-03T08:38:41.246Z,2.30
2023-05-03T08:41:22.118Z,2.27
2023-05-03T08:43:54.174Z,1.80
2023-05-03T08:46:26.708Z,1.90
2023-05-03T08:48:56.612Z,1.80
2023-05-03T08:51:27.313Z,1.97
2023-05-03T08:53:57.017Z,2.20
2023-05-03T08:56:30.422Z,2.10
2023-05-03T08:59:07.273Z,3.15
2023-05-03T09:01:38.765Z,3.90
2023-05-03T09:04:10.198Z,2.10
2023-05-03T09:06:39.435Z,1.70
2023-05-03T09:09:09.191Z,1.70
2023-05-03T09:11:40.009Z,2.00
2023-05-03T09:14:14.291Z,1.70
2023-05-03T09:16:45.170Z,1.90
2023-05-03T09:19:16.250Z,2.20
2023-05-03T09:21:46.930Z,1.90
2023-05-03T09:24:18.800Z,1.70
2023-05-03T09:26:49.688Z,1.50
2023-05-03T09:29:33.776Z,1.83
2023-05-03T09:32:05.060Z,1.65
2023-05-03T09:34:35.117Z,2.00
2023-05-03T09:37:05.063Z,1.67
2023-05-03T09:39:36.310Z,1.63
2023-05-03T09:42:16.131Z,2.10
2023-05-03T09:44:50.852Z,1.30
2023-05-03T09:47:24.056Z,1.70
2023-05-03T09:49:54.057Z,1.80
2023-05-03T09:52:23.077Z,1.47
2023-05-03T09:54:53.854Z,1.27
2023-05-03T09:57:23.382Z,1.40
2023-05-03T09:59:52.866Z,1.60
2023-05-03T10:02:22.444Z,1.63
2023-05-03T10:04:56.427Z,1.50
2023-05-03T10:07:29.641Z,1.20
2023-05-03T10:09:58.849Z,1.80
2023-05-03T10:12:35.880Z,1.60
2023-05-03T10:15:08.822Z,1.37
2023-05-03T10:17:47.330Z,2.03
2023-05-03T10:20:26.785Z,1.70
2023-05-03T10:23:14.918Z,1.37
2023-05-03T10:26:14.366Z,1.77
2023-05-03T10:28:43.725Z,2.43
2023-05-03T10:31:46.466Z,1.87
2023-05-03T10:34:23.203Z,1.63
2023-05-03T10:36:53.800Z,1.53
2023-05-03T10:39:24.289Z,1.90
2023-05-03T10:42:03.128Z,1.37
2023-05-03T10:44:40.647Z,1.80
2023-05-03T10:47:15.045Z,1.60
2023-05-03T10:49:44.427Z,2.00
2023-05-03T10:52:48.024Z,2.20
2023-05-03T10:55:18.766Z,1.90
2023-05-03T10:57:50.852Z,1.67
2023-05-03T11:00:28.987Z,1.75
2023-05-03T11:03:13.356Z,1.43
2023-05-03T11:05:43.043Z,1.57
2023-05-03T11:08:16.660Z,1.63
2023-05-03T11:13:15.548Z,1.60
2023-05-03T11:15:47.015Z,2.27
2023-05-03T11:18:18.575Z,1.90
2023-05-03T11:20:47.989Z,1.80
2023-05-03T11:23:17.088Z,1.50
2023-05-03T11:25:46.016Z,1.60
2023-05-03T11:28:16.581Z,1.77
2023-05-03T11:30:47.650Z,1.33
2023-05-03T11:33:17.365Z,1.47
2023-05-03T11:35:46.868Z,2.30
2023-05-03T11:38:16.169Z,1.90
2023-05-03T11:40:46.417Z,1.83
2023-05-03T11:43:15.434Z,1.60
2023-05-03T11:45:47.064Z,1.50
2023-05-03T11:48:17.690Z,1.40
2023-05-03T11:50:48.429Z,1.30
2023-05-03T11:53:18.608Z,1.90
2023-05-03T11:55:50.196Z,1.93
2023-05-03T11:58:23.272Z,1.80
2023-05-03T12:00:58.078Z,1.45
2023-05-03T12:03:31.813Z,1.30
2023-05-03T12:06:06.480Z,1.43
2023-05-03T12:11:09.894Z,1.60
2023-05-03T12:13:40.755Z,1.60
2023-05-03T12:16:14.293Z,1.43
2023-05-03T12:18:50.115Z,1.50
2023-05-03T12:26:26.949Z,1.97
2023-05-03T12:28:57.227Z,1.80
2023-05-03T12:31:29.194Z,1.77
2023-05-03T12:36:35.078Z,1.57
2023-05-03T12:39:09.779Z,1.90
2023-05-03T12:44:12.091Z,1.90
2023-05-03T12:46:44.754Z,1.77
2023-05-03T12:49:15.040Z,1.77
2023-05-03T12:51:55.432Z,1.77
2023-05-03T12:54:33.980Z,1.70
2023-05-03T12:57:08.528Z,1.72
2023-05-03T12:59:42.559Z,1.70
2023-05-03T13:04:57.787Z,1.50
2023-05-03T13:07:37.533Z,1.90
2023-05-03T13:12:49.294Z,1.67
2023-05-03T13:15:18.486Z,1.73
2023-05-03T13:17:48.526Z,2.03
2023-05-03T13:20:19.787Z,1.80
2023-05-03T13:22:49.807Z,1.73
2023-05-03T13:25:18.983Z,1.60
2023-05-03T13:27:49.723Z,1.80
2023-05-03T13:30:20.960Z,1.60
2023-05-03T13:32:50.184Z,1.50
2023-05-03T13:35:19.717Z,1.60
2023-05-03T13:37:48.597Z,1.70
2023-05-03T13:40:18.378Z,1.67
2023-05-03T13:42:48.140Z,1.50
2023-05-03T13:45:18.300Z,1.53
2023-05-03T13:48:10.177Z,1.53
2023-05-03T13:50:36.431Z,1.43
2023-05-03T13:53:05.528Z,1.37
2023-05-03T13:55:35.060Z,1.80
2023-05-03T13:58:04.451Z,1.90
2023-05-03T14:00:33.474Z,1.67
2023-05-03T14:03:02.799Z,1.73
2023-05-03T14:05:31.946Z,2.00
2023-05-03T14:08:01.599Z,1.80
2023-05-03T14:10:35.241Z,2.13
2023-05-03T14:13:04.676Z,2.50
2023-05-03T14:15:38.045Z,1.70
2023-05-03T14:18:07.533Z,1.60
2023-05-03T14:20:36.953Z,1.40
2023-05-03T14:23:06.230Z,1.70
2023-05-03T14:25:35.864Z,1.77
2023-05-03T14:28:05.143Z,1.70
2023-05-03T14:30:34.362Z,1.70
2023-05-03T14:33:03.942Z,1.30
2023-05-03T14:35:33.038Z,1.70
2023-05-03T14:38:02.274Z,1.53
2023-05-03T14:40:31.975Z,1.90
2023-05-03T14:43:00.891Z,1.80
2023-05-03T14:45:32.431Z,2.03
2023-05-03T14:48:02.281Z,1.57
2023-05-03T14:50:31.923Z,1.80
2023-05-03T14:53:00.915Z,1.70
2023-05-03T14:55:30.960Z,1.80
2023-05-03T14:58:00.005Z,1.67
2023-05-03T15:00:31.459Z,1.40
2023-05-03T15:03:00.625Z,1.47
2023-05-03T15:05:30.798Z,1.70
2023-05-03T15:08:00.202Z,2.00
2023-05-03T15:10:30.234Z,1.40
2023-05-03T15:12:59.678Z,1.40
2023-05-03T15:15:29.784Z,1.67
2023-05-03T15:17:58.832Z,1.57
2023-05-03T15:20:28.147Z,1.70
2023-05-03T15:22:57.541Z,1.35
2023-05-03T15:25:27.062Z,1.60
2023-05-03T15:27:57.386Z,1.63
2023-05-03T15:30:26.597Z,1.50
2023-05-03T15:32:56.429Z,1.43
2023-05-03T15:35:25.830Z,1.67
2023-05-03T15:37:54.901Z,1.40
2023-05-03T15:40:26.754Z,1.43
2023-05-03T15:42:56.979Z,1.33
2023-05-03T15:45:28.496Z,1.97
2023-05-03T15:47:57.426Z,1.60
2023-05-03T15:50:26.539Z,1.60
2023-05-03T15:52:56.443Z,1.60
2023-05-03T15:55:26.647Z,1.70
2023-05-03T15:57:56.773Z,1.80
2023-05-03T16:00:28.197Z,1.90
2023-05-03T16:02:58.797Z,1.33
2023-05-03T16:05:29.444Z,1.55
2023-05-03T16:07:58.839Z,1.57
2023-05-03T16:10:31.065Z,1.60
2023-05-03T16:13:00.266Z,1.83
2023-05-03T16:15:31.613Z,1.77
2023-05-03T16:18:01.001Z,1.67
2023-05-03T16:20:30.839Z,1.70
2023-05-03T16:22:59.852Z,1.47
2023-05-03T16:25:30.977Z,1.63
2023-05-03T16:28:00.230Z,1.50
2023-05-03T16:30:29.978Z,1.57
2023-05-03T16:32:59.105Z,1.40
2023-05-03T16:35:28.863Z,1.70
2023-05-03T16:37:57.677Z,1.30
2023-05-03T16:40:26.606Z,1.50
2023-05-03T16:42:57.659Z,1.37
2023-05-03T16:45:26.618Z,2.03
2023-05-03T16:47:56.378Z,1.50
2023-05-03T16:50:25.925Z,1.77
2023-05-03T16:52:55.754Z,1.43
2023-05-03T16:55:24.759Z,1.70
2023-05-03T16:57:53.684Z,1.30
2023-05-03T17:00:22.947Z,1.93
2023-05-03T17:02:52.404Z,1.50
2023-05-03T17:05:22.289Z,1.30
2023-05-03T17:07:52.068Z,1.67
2023-05-03T17:10:21.098Z,1.43
2023-05-03T17:12:50.478Z,1.47
2023-05-03T17:15:19.705Z,1.53
2023-05-03T17:17:48.919Z,1.60
2023-05-03T17:20:18.334Z,1.30
2023-05-03T17:22:47.384Z,1.67
2023-05-03T17:25:16.792Z,1.60
2023-05-03T17:27:45.832Z,1.90
2023-05-03T17:30:20.363Z,1.80
2023-05-03T17:32:51.237Z,1.37
2023-05-03T17:35:21.514Z,1.70
2023-05-03T17:37:50.792Z,1.50
2023-05-03T17:40:19.962Z,1.60
2023-05-03T17:42:48.948Z,1.43
2023-05-03T17:45:18.972Z,1.80
2023-05-03T17:47:48.563Z,1.40
2023-05-03T17:50:17.644Z,1.47
2023-05-03T17:52:46.564Z,1.80
2023-05-03T17:55:17.931Z,2.00
2023-05-03T17:57:47.592Z,1.47
2023-05-03T18:00:21.168Z,1.67
2023-05-03T18:05:19.505Z,1.70
2023-05-03T18:07:48.924Z,1.67
2023-05-03T18:10:18.159Z,1.70
2023-05-03T18:12:47.186Z,1.90
2023-05-03T18:15:16.622Z,1.87
2023-05-03T18:17:46.215Z,2.57
2023-05-03T18:20:15.910Z,2.27
2023-05-03T18:22:44.695Z,2.00
2023-05-03T18:25:14.127Z,2.10
2023-05-03T18:27:43.656Z,2.67
2023-05-03T18:30:17.723Z,2.73
2023-05-03T18:32:47.230Z,2.40
2023-05-03T18:35:19.562Z,2.37
2023-05-03T18:37:48.905Z,2.80
2023-05-03T18:40:19.743Z,3.00
2023-05-03T18:42:48.973Z,2.53
2023-05-03T18:45:19.120Z,2.60
2023-05-03T18:47:51.877Z,2.20
2023-05-03T18:50:21.945Z,2.87
2023-05-03T18:52:50.973Z,2.35
2023-05-03T18:55:20.088Z,2.67
2023-05-03T18:57:49.437Z,2.60
2023-05-03T19:00:18.984Z,2.70
2023-05-03T19:02:48.368Z,2.30
2023-05-03T19:05:19.684Z,3.23
2023-05-03T19:07:51.794Z,3.37
2023-05-03T19:10:21.286Z,2.87
2023-05-03T19:12:53.415Z,2.90
2023-05-03T19:15:25.448Z,2.67
2023-05-03T19:17:57.424Z,2.90
2023-05-03T19:20:27.388Z,3.23
2023-05-03T19:22:57.370Z,3.43
2023-05-03T19:25:26.296Z,4.03
2023-05-03T19:27:55.426Z,3.73
2023-05-03T19:30:24.650Z,3.80
2023-05-03T19:32:53.827Z,4.40
2023-05-03T19:35:23.202Z,4.30
2023-05-03T19:37:52.341Z,4.90
2023-05-03T19:40:22.429Z,5.77
2023-05-03T19:42:52.044Z,5.30
2023-05-03T19:45:20.980Z,5.57
2023-05-03T19:47:50.368Z,6.80
2023-05-03T19:50:19.624Z,5.87
2023-05-03T19:52:52.762Z,6.87
2023-05-03T19:55:21.886Z,6.10
2023-05-03T19:57:51.046Z,6.83
2023-05-03T20:00:22.864Z,5.80
2023-05-03T20:02:55.240Z,4.93
2023-05-03T20:05:24.505Z,6.07
2023-05-03T20:07:53.766Z,5.97
2023-05-03T20:10:23.013Z,4.97
2023-05-03T20:12:52.573Z,5.27
2023-05-03T20:15:21.365Z,5.47
2023-05-03T20:17:52.911Z,5.60
2023-05-03T20:20:22.347Z,6.07
2023-05-03T20:22:51.545Z,6.63
2023-05-03T20:25:21.289Z,6.73
2023-05-03T20:27:50.504Z,6.40
2023-05-03T20:30:20.091Z,6.87
2023-05-03T20:32:49.451Z,7.20
2023-05-03T20:35:19.629Z,7.63
2023-05-03T20:37:50.948Z,7.90
2023-05-03T20:40:20.235Z,7.90
2023-05-03T20:42:49.742Z,8.57
2023-05-03T20:45:20.469Z,9.35
2023-05-03T20:47:49.889Z,9.70
2023-05-03T20:50:20.772Z,9.90
2023-05-03T20:52:49.974Z,9.30
2023-05-03T20:55:20.253Z,9.00
2023-05-03T20:57:56.309Z,8.93
2023-05-03T21:00:26.897Z,10.03
2023-05-03T21:02:58.723Z,9.07
2023-05-03T21:05:33.578Z,10.13
2023-05-03T21:08:02.821Z,9.20
2023-05-03T21:10:31.959Z,10.43
2023-05-03T21:13:00.907Z,10.17
2023-05-03T21:15:30.264Z,9.77
2023-05-03T21:18:01.326Z,11.10
2023-05-03T21:20:32.978Z,9.40
2023-05-03T21:23:02.092Z,11.33
2023-05-03T21:25:31.498Z,12.23
2023-05-03T21:28:00.436Z,11.73
2023-05-03T21:30:32.135Z,11.77
2023-05-03T21:33:01.027Z,12.57
2023-05-03T21:35:30.692Z,11.13
2023-05-03T21:37:59.944Z,11.13
2023-05-03T21:40:29.441Z,10.17
2023-05-03T21:42:58.434Z,10.30
2023-05-03T21:45:32.155Z,10.83
2023-05-03T21:48:01.610Z,12.18
2023-05-03T21:50:31.454Z,10.50
2023-05-03T21:53:00.481Z,11.30
2023-05-03T21:55:30.986Z,11.33
2023-05-03T21:58:00.548Z,11.37
2023-05-03T22:00:31.284Z,12.17
2023-05-03T22:03:00.712Z,11.40
2023-05-03T22:05:32.588Z,11.07
2023-05-03T22:08:02.130Z,11.90
2023-05-03T22:10:31.405Z,11.15
2023-05-03T22:13:00.331Z,10.93
2023-05-03T22:15:33.186Z,11.00
2023-05-03T22:18:02.459Z,11.03
2023-05-03T22:20:31.941Z,11.50
2023-05-03T22:23:01.174Z,10.10
2023-05-03T22:25:32.267Z,10.47
2023-05-03T22:28:01.729Z,10.10
2023-05-03T22:30:31.237Z,10.93
2023-05-03T22:33:00.462Z,10.90
2023-05-03T22:35:32.021Z,11.00
2023-05-03T22:38:01.715Z,10.90
2023-05-03T22:40:31.056Z,11.53
2023-05-03T22:42:59.982Z,11.33
2023-05-03T22:45:31.543Z,10.90
2023-05-03T22:48:00.853Z,10.50
2023-05-03T22:50:34.015Z,10.43
2023-05-03T22:53:06.001Z,11.40
2023-05-03T22:55:34.878Z,11.23
2023-05-03T22:58:03.934Z,11.60
2023-05-03T23:00:33.108Z,11.40
2023-05-03T23:03:02.172Z,11.87
2023-05-03T23:05:31.921Z,12.80
2023-05-03T23:08:00.816Z,13.97
2023-05-03T23:10:34.071Z,12.87
2023-05-03T23:13:03.082Z,12.90
2023-05-03T23:15:32.821Z,11.87
2023-05-03T23:18:02.044Z,11.57
2023-05-03T23:20:32.004Z,12.03
2023-05-03T23:23:01.507Z,11.53
2023-05-03T23:25:31.706Z,12.33
2023-05-03T23:28:00.582Z,12.27
2023-05-03T23:30:30.734Z,12.27
2023-05-03T23:33:00.186Z,11.97
2023-05-03T23:35:31.811Z,11.70
2023-05-03T23:38:00.807Z,10.93
2023-05-03T23:40:30.850Z,10.17
2023-05-03T23:42:59.765Z,10.90
2023-05-03T23:45:31.641Z,12.10
2023-05-03T23:48:00.650Z,11.20
2023-05-03T23:50:29.816Z,11.47
2023-05-03T23:52:58.808Z,10.33
2023-05-03T23:55:27.729Z,10.73
2023-05-03T23:57:57.570Z,10.60
